Time;durP1;ratioP1;P1;durP2;ratioP2;P2;SDS_P1;SDS_P2;PMS_P1;PMS_P2;Temp;Humidity;BMP_temperature;BMP_pressure;BME280_temperature;BME280_humidity;BME280_pressure;Samples;Min_cycle;Max_cycle;Signal;HPM_P1;HPM_P2
2022/07/05 00:00:10;;;;;;;2.78;1.73;;;16.80;99.80;;;16.76;83.66;97511.22;4941167;28;20027;-39
2022/07/05 00:02:36;;;;;;;2.38;1.50;;;16.80;99.70;;;16.75;82.85;97509.50;4939949;28;20038;-39
2022/07/05 00:05:03;;;;;;;2.60;1.70;;;16.80;99.60;;;16.72;83.28;97504.34;4942422;28;20035;-39
2022/07/05 00:07:28;;;;;;;2.50;1.60;;;16.80;99.60;;;16.69;83.73;97501.00;4941703;28;20035;-38
2022/07/05 00:09:57;;;;;;;1.98;1.55;;;16.80;99.80;;;16.66;83.14;97502.06;4944011;28;20042;-39
2022/07/05 00:12:30;;;;;;;3.25;1.40;;;16.80;99.80;;;16.64;83.04;97495.13;4941745;29;20043;-39
2022/07/05 00:14:56;;;;;;;2.55;1.42;;;16.70;99.80;;;16.61;82.79;97493.50;4939991;29;20035;-38
2022/07/05 00:17:21;;;;;;;1.83;1.00;;;16.70;99.70;;;16.61;81.88;97490.81;4943623;28;20035;-38
2022/07/05 00:19:47;;;;;;;1.77;1.15;;;16.70;99.50;;;16.62;80.73;97492.56;4946692;29;20498;-39
2022/07/05 00:22:13;;;;;;;1.55;1.17;;;16.70;99.10;;;16.57;80.65;97478.66;4943898;29;20038;-39
2022/07/05 00:24:39;;;;;;;1.35;1.20;;;16.70;99.10;;;16.62;79.90;97495.22;4940853;29;20412;-38
2022/07/05 00:27:04;;;;;;;2.90;1.40;;;16.70;98.90;;;16.60;78.97;97494.47;4938859;28;20043;-39
2022/07/05 00:29:30;;;;;;;3.30;1.42;;;16.80;98.60;;;16.60;79.60;97491.78;4941828;28;20038;-39
2022/07/05 00:31:56;;;;;;;2.10;1.45;;;16.80;98.70;;;16.58;79.35;97483.91;4939870;28;20078;-39
2022/07/05 00:34:22;;;;;;;1.58;1.10;;;16.80;98.70;;;16.58;80.31;97491.88;4943701;28;20075;-39
2022/07/05 00:36:47;;;;;;;2.03;1.20;;;16.70;99.00;;;16.56;80.34;97483.13;4940609;28;20554;-39
2022/07/05 00:39:13;;;;;;;1.58;1.15;;;16.70;99.20;;;16.51;81.11;97493.19;4943630;28;20066;-38
2022/07/05 00:41:39;;;;;;;1.73;1.00;;;16.60;99.40;;;16.46;81.12;97486.44;4941465;28;20035;-38
2022/07/05 00:44:09;;;;;;;6.43;1.20;;;16.50;99.50;;;16.42;81.14;97486.59;4940735;28;20462;-38
2022/07/05 00:46:37;;;;;;;2.17;1.17;;;16.50;99.50;;;16.39;81.31;97480.59;4940766;29;20023;-38
2022/07/05 00:49:05;;;;;;;1.42;0.95;;;16.50;99.60;;;16.29;82.42;97482.94;4945001;28;20054;-39
2022/07/05 00:51:34;;;;;;;1.45;1.15;;;16.40;99.90;;;16.26;83.10;97485.81;4940459;29;20126;-40
2022/07/05 00:54:01;;;;;;;1.42;1.20;;;16.40;99.90;;;16.05;83.40;97455.97;4939025;28;20118;-39
2022/07/05 00:56:27;;;;;;;1.30;1.00;;;16.30;99.90;;;16.16;83.01;97490.78;4939127;28;20070;-39
2022/07/05 00:58:53;;;;;;;1.20;1.10;;;16.30;99.90;;;16.12;83.56;97481.28;4944024;28;20042;-39
2022/07/05 01:01:19;;;;;;;1.63;0.95;;;16.20;99.90;;;16.10;83.19;97491.16;4939018;28;20467;-38
2022/07/05 01:03:45;;;;;;;1.13;0.98;;;16.20;99.90;;;16.10;82.88;97496.47;4936550;28;20247;-39
2022/07/05 01:06:12;;;;;;;1.67;1.10;;;16.20;99.90;;;16.09;84.01;97496.56;4944189;28;20271;-39
2022/07/05 01:08:41;;;;;;;3.65;1.15;;;16.20;99.90;;;16.05;84.75;97500.34;4943065;28;20166;-39
2022/07/05 01:11:11;;;;;;;3.22;1.02;;;16.10;99.90;;;15.99;84.61;97497.09;4947047;28;20023;-39
2022/07/05 01:13:38;;;;;;;1.52;1.00;;;16.10;99.90;;;15.97;84.09;97498.09;4945164;28;20027;-39
2022/07/05 01:16:04;;;;;;;1.30;1.10;;;16.10;99.90;;;15.91;84.45;97494.00;4946492;29;20106;-39
2022/07/05 01:18:32;;;;;;;2.38;1.10;;;16.10;99.90;;;15.91;84.15;97501.13;4941516;28;20051;-39
2022/07/05 01:20:59;;;;;;;2.10;1.20;;;16.00;99.90;;;15.84;83.89;97497.94;4947221;29;20502;-38
2022/07/05 01:23:27;;;;;;;2.03;1.02;;;16.00;99.90;;;15.85;83.84;97502.34;4939714;28;20118;-38
2022/07/05 01:25:54;;;;;;;1.20;1.00;;;15.90;99.90;;;15.83;83.89;97494.44;4929983;29;20035;-39
2022/07/05 01:28:21;;;;;;;2.75;1.00;;;15.90;99.90;;;15.78;83.62;97499.16;4928754;29;20102;-39
2022/07/05 01:30:47;;;;;;;1.30;0.98;;;15.90;99.90;;;15.75;83.44;97491.34;4943871;29;20019;-38
2022/07/05 01:33:13;;;;;;;1.95;0.90;;;15.90;99.90;;;15.77;83.71;97492.16;4942320;29;20046;-38
2022/07/05 01:35:39;;;;;;;1.33;1.02;;;15.90;99.90;;;15.76;84.04;97498.41;4939856;28;20031;-38
2022/07/05 01:38:05;;;;;;;1.25;0.95;;;15.90;99.90;;;15.73;83.57;97495.88;4942563;28;20066;-38
2022/07/05 01:40:31;;;;;;;1.33;0.88;;;15.90;99.90;;;15.70;83.44;97489.88;4943170;29;20059;-39
2022/07/05 01:42:57;;;;;;;1.60;1.10;;;15.90;99.90;;;15.70;83.29;97503.16;4944527;28;20045;-39
2022/07/05 01:45:41;;;;;;;1.52;1.10;;;15.90;99.90;;;15.70;83.08;97497.84;4926735;29;20043;-39
2022/07/05 01:48:10;;;;;;;1.95;1.13;;;15.80;99.90;;;15.68;83.00;97494.41;4943491;28;20396;-39
2022/07/05 01:50:47;;;;;;;2.00;1.00;;;15.80;99.90;;;15.65;83.50;97498.13;4944208;28;21336;-39
2022/07/05 01:53:23;;;;;;;2.63;0.80;;;15.80;99.90;;;15.62;83.83;97496.47;4939868;28;20638;-38
2022/07/05 01:55:50;;;;;;;1.80;1.08;;;15.70;99.90;;;15.46;84.45;97474.34;4938869;28;20045;-39
2022/07/05 01:58:16;;;;;;;2.17;1.10;;;15.70;99.90;;;15.55;84.17;97502.22;4941028;28;20039;-39
2022/07/05 02:00:51;;;;;;;0.88;0.88;;;15.60;99.90;;;15.55;84.11;97494.25;4939698;28;20039;-38
2022/07/05 02:03:17;;;;;;;1.40;1.05;;;15.60;99.90;;;15.51;83.81;97503.34;4934058;28;20738;-38
2022/07/05 02:05:45;;;;;;;2.17;1.17;;;15.70;99.90;;;15.49;83.99;97500.75;4935782;28;20087;-38
2022/07/05 02:08:12;;;;;;;1.58;1.00;;;15.60;99.90;;;15.43;84.62;97498.44;4938950;28;20039;-37
2022/07/05 02:10:39;;;;;;;1.27;0.93;;;15.60;99.90;;;15.36;85.17;97502.34;4975637;23;20324;-46
2022/07/05 02:13:06;;;;;;;2.13;1.10;;;15.50;99.90;;;15.31;85.76;97507.06;4954031;28;20086;-46
2022/07/05 02:15:34;;;;;;;1.80;1.02;;;15.50;99.90;;;15.23;86.39;97499.50;4959219;28;20050;-46
2022/07/05 02:18:01;;;;;;;2.03;1.00;;;15.40;99.90;;;15.18;86.62;97501.56;4958995;28;20519;-48
2022/07/05 02:20:28;;;;;;;1.50;0.98;;;15.30;99.90;;;15.11;87.09;97494.84;4943431;28;20027;-46
2022/07/05 02:22:54;;;;;;;1.00;0.90;;;15.30;99.90;;;15.03;88.65;97497.94;4932012;28;20031;-48
2022/07/05 02:25:19;;;;;;;1.35;1.23;;;15.20;99.90;;;14.99;88.78;97502.56;4938083;28;20035;-46
2022/07/05 02:27:46;;;;;;;1.67;1.20;;;15.20;99.90;;;14.96;89.69;97502.72;4941482;28;20106;-46
2022/07/05 02:30:12;;;;;;;1.45;1.17;;;15.10;99.90;;;14.96;89.28;97505.38;4941749;28;20641;-48
2022/07/05 02:32:38;;;;;;;1.98;1.30;;;15.10;99.90;;;14.92;89.84;97498.50;4936576;28;20041;-46
2022/07/05 02:35:05;;;;;;;3.20;1.27;;;15.10;99.90;;;14.86;90.10;97489.06;4939722;28;20035;-46
2022/07/05 02:37:31;;;;;;;2.47;1.33;;;15.00;99.90;;;14.87;90.20;97489.91;4940536;28;20113;-47
2022/07/05 02:39:57;;;;;;;1.90;1.05;;;15.00;99.90;;;14.92;90.08;97497.66;4933688;28;20544;-48
2022/07/05 02:42:22;;;;;;;2.25;1.00;;;15.00;99.90;;;14.82;89.73;97482.22;4936186;28;20301;-45
2022/07/05 02:44:48;;;;;;;1.77;0.80;;;15.00;99.90;;;14.92;89.78;97495.00;4939018;28;20042;-46
2022/07/05 02:47:14;;;;;;;1.42;1.08;;;15.00;99.90;;;14.93;89.32;97496.69;4942992;28;20042;-48
2022/07/05 02:49:39;;;;;;;1.63;1.10;;;15.10;99.90;;;14.93;90.34;97499.34;4941476;28;20067;-47
2022/07/05 02:52:05;;;;;;;4.38;1.30;;;15.00;99.90;;;14.88;91.52;97502.28;4943656;28;20042;-47
2022/07/05 02:54:31;;;;;;;1.73;1.10;;;15.00;99.90;;;14.83;91.92;97505.16;4936520;28;20027;-46
2022/07/05 02:56:56;;;;;;;1.15;1.05;;;15.00;99.90;;;14.78;91.95;97503.69;4938707;28;20153;-47
2022/07/05 02:59:22;;;;;;;1.38;1.08;;;15.00;99.90;;;14.78;91.02;97509.84;4941684;28;20113;-47
2022/07/05 03:01:48;;;;;;;1.02;0.90;;;14.90;99.90;;;14.78;90.52;97511.66;4940017;28;20035;-46
2022/07/05 03:04:14;;;;;;;0.77;0.70;;;14.90;99.90;;;14.77;90.45;97512.56;4938786;28;20528;-50
2022/07/05 03:06:40;;;;;;;1.98;1.08;;;14.90;99.90;;;14.73;90.59;97509.22;4934988;28;20078;-50
2022/07/05 03:09:05;;;;;;;2.00;1.20;;;14.90;99.90;;;14.69;90.98;97512.97;4944150;28;20046;-50
2022/07/05 03:11:31;;;;;;;2.25;1.15;;;14.80;99.90;;;14.64;91.43;97509.69;4940895;28;20035;-50
2022/07/05 03:13:57;;;;;;;2.03;1.20;;;14.80;99.90;;;14.60;92.49;97511.66;4940834;28;20051;-51
2022/07/05 03:16:23;;;;;;;1.73;1.15;;;14.80;99.90;;;14.55;92.14;97515.44;4941234;28;20500;-51
2022/07/05 03:18:50;;;;;;;3.30;1.20;;;14.70;99.90;;;14.54;91.76;97513.75;4941906;28;20484;-50
2022/07/05 03:21:16;;;;;;;2.05;1.13;;;14.70;99.90;;;14.52;91.75;97519.13;4939251;28;20039;-49
2022/07/05 03:23:41;;;;;;;1.48;0.90;;;14.70;99.90;;;14.49;91.32;97514.81;4939987;28;20499;-51
2022/07/05 03:26:07;;;;;;;1.13;1.00;;;14.70;99.90;;;14.52;90.92;97513.81;4936570;28;20027;-50
2022/07/05 03:28:33;;;;;;;1.95;1.05;;;14.70;99.90;;;14.49;90.87;97520.13;4938126;28;20027;-49
2022/07/05 03:30:59;;;;;;;1.38;0.90;;;14.70;99.90;;;14.45;90.87;97515.06;4935912;28;20532;-50
2022/07/05 03:33:25;;;;;;;1.58;0.90;;;14.60;99.90;;;14.48;90.68;97523.75;4942703;28;20481;-49
2022/07/05 03:35:50;;;;;;;1.58;1.02;;;14.60;99.90;;;14.47;90.43;97511.41;4937882;28;20095;-49
2022/07/05 03:38:16;;;;;;;1.50;1.00;;;14.60;99.90;;;14.45;90.98;97507.97;4939457;28;20050;-50
2022/07/05 03:40:42;;;;;;;2.00;1.10;;;14.60;99.90;;;14.45;91.52;97526.53;4936503;28;20032;-50
2022/07/05 03:43:08;;;;;;;2.45;1.60;;;14.60;99.90;;;14.46;91.38;97525.63;4938443;28;20196;-51
2022/07/05 03:45:33;;;;;;;2.63;1.60;;;14.60;99.90;;;14.44;91.46;97526.63;4938971;28;20031;-50
2022/07/05 03:48:00;;;;;;;2.30;1.30;;;14.60;99.90;;;14.45;90.80;97528.34;4937239;28;20031;-51
2022/07/05 03:50:27;;;;;;;1.95;1.10;;;14.60;99.90;;;14.47;90.13;97527.31;4939888;28;20041;-51
2022/07/05 03:52:52;;;;;;;1.65;1.08;;;14.70;99.90;;;14.48;90.34;97522.84;4941377;28;20153;-51
2022/07/05 03:55:18;;;;;;;1.00;0.82;;;14.60;99.90;;;14.54;89.48;97529.69;4923813;29;20402;-50
2022/07/05 03:57:45;;;;;;;1.60;1.00;;;14.70;99.90;;;14.46;89.51;97517.66;4940107;28;20049;-52
2022/07/05 04:00:12;;;;;;;1.20;1.02;;;14.70;99.90;;;14.52;89.93;97535.06;4938836;28;20106;-51
2022/07/05 04:02:37;;;;;;;1.55;1.00;;;14.70;99.90;;;14.51;90.09;97539.47;4933715;28;20041;-52
2022/07/05 04:05:04;;;;;;;1.17;0.80;;;14.70;99.90;;;14.52;90.97;97548.34;4936164;28;20031;-49
2022/07/05 04:07:30;;;;;;;1.38;1.02;;;14.70;99.90;;;14.49;92.09;97545.81;4938233;28;20050;-51
2022/07/05 04:09:56;;;;;;;2.58;1.27;;;14.70;99.90;;;14.44;91.81;97550.50;4941010;28;20039;-50
2022/07/05 04:12:21;;;;;;;1.35;0.90;;;14.70;99.90;;;14.53;90.96;97563.28;4937644;28;20392;-47
2022/07/05 04:14:47;;;;;;;1.23;1.00;;;14.70;99.90;;;14.62;90.66;97569.97;4940804;28;20039;-51
2022/07/05 04:17:13;;;;;;;1.75;1.10;;;14.80;99.90;;;14.70;91.50;97576.63;4938040;28;20183;-51
2022/07/05 04:19:39;;;;;;;1.48;1.02;;;14.90;99.90;;;14.75;91.85;97572.84;4943489;28;20499;-50
2022/07/05 04:22:05;;;;;;;2.05;1.30;;;14.90;99.90;;;14.78;92.87;97578.88;4939173;28;20031;-48
2022/07/05 04:24:31;;;;;;;2.45;1.05;;;15.00;99.90;;;14.80;93.44;97578.78;4941845;28;20027;-49
2022/07/05 04:26:56;;;;;;;1.98;0.90;;;15.00;99.90;;;14.86;92.71;97578.50;4934594;28;20038;-50
2022/07/05 04:29:22;;;;;;;2.45;1.00;;;15.00;99.90;;;14.90;92.37;97577.41;4944174;28;20088;-46
2022/07/05 04:31:48;;;;;;;0.80;0.80;;;15.10;99.90;;;14.97;92.10;97573.47;4942245;28;20031;-47
2022/07/05 04:34:14;;;;;;;2.13;1.10;;;15.10;99.90;;;15.04;92.14;97576.69;4942638;28;20045;-49
2022/07/05 04:36:40;;;;;;;1.33;0.90;;;15.20;99.90;;;15.08;92.54;97579.09;4941973;28;20526;-48
2022/07/05 04:39:07;;;;;;;1.80;1.00;;;15.20;99.90;;;15.13;91.31;97570.00;4944439;28;20123;-50
2022/07/05 04:41:33;;;;;;;2.75;1.10;;;15.30;99.90;;;15.23;89.98;97576.56;4935036;28;20031;-49
2022/07/05 04:43:59;;;;;;;1.80;1.08;;;15.40;99.90;;;15.33;88.52;97575.16;4940526;28;20550;-47
2022/07/05 04:46:25;;;;;;;2.35;1.17;;;15.50;99.90;;;15.44;85.49;97575.41;4937432;28;20062;-51
2022/07/05 04:48:51;;;;;;;2.03;1.23;;;15.60;99.90;;;15.57;84.52;97580.06;4938815;28;20035;-50
2022/07/05 04:51:17;;;;;;;2.85;1.17;;;15.70;99.90;;;15.65;83.73;97583.19;4936333;28;20074;-47
2022/07/05 04:53:43;;;;;;;1.40;1.00;;;15.80;99.90;;;15.73;82.86;97591.59;4940550;28;20035;-50
2022/07/05 04:56:08;;;;;;;1.35;0.90;;;15.90;99.90;;;15.84;82.52;97599.00;4943489;28;20506;-48
2022/07/05 04:58:34;;;;;;;1.83;1.10;;;16.00;99.90;;;15.87;82.80;97590.00;4943049;28;20364;-50
2022/07/05 05:01:00;;;;;;;1.25;0.95;;;16.10;99.90;;;15.98;83.88;97592.94;4934962;28;20055;-50
2022/07/05 05:03:26;;;;;;;1.40;1.17;;;16.10;99.90;;;16.07;83.09;97589.75;4938890;28;20063;-47
2022/07/05 05:05:51;;;;;;;1.50;1.00;;;16.20;99.90;;;16.33;81.30;97595.38;4936852;28;20059;-47
2022/07/05 05:08:17;;;;;;;2.00;1.00;;;16.40;99.90;;;16.78;78.08;97601.69;4941527;28;20042;-47
2022/07/05 05:10:43;;;;;;;1.88;1.10;;;16.60;99.90;;;17.51;73.54;97583.06;4943301;28;20632;-50
2022/07/05 05:13:08;;;;;;;3.20;1.00;;;17.10;99.90;;;18.73;64.75;97593.97;4946765;28;20487;-50
2022/07/05 05:15:34;;;;;;;2.80;1.10;;;17.80;99.90;;;20.24;57.64;97599.53;4944930;28;20031;-46
2022/07/05 05:18:00;;;;;;;1.67;0.90;;;18.70;98.70;;;21.70;52.69;97593.88;4942675;28;20051;-50
2022/07/05 05:20:26;;;;;;;3.88;1.10;;;19.70;97.00;;;22.86;49.77;97597.94;4928786;29;20096;-49
2022/07/05 05:22:52;;;;;;;1.30;0.90;;;20.60;95.30;;;23.73;47.41;97597.72;4942049;28;20031;-48
2022/07/05 05:25:17;;;;;;;2.00;1.10;;;21.40;94.10;;;24.44;45.58;97595.97;4948421;28;20053;-47
2022/07/05 05:27:49;;;;;;;1.90;1.10;;;22.00;92.60;;;25.22;44.14;97606.84;4944305;28;20566;-49
2022/07/05 05:30:17;;;;;;;1.27;1.00;;;22.60;91.60;;;25.92;42.32;97600.16;4944869;28;20467;-50
2022/07/05 05:32:43;;;;;;;4.25;1.17;;;23.20;90.40;;;26.20;40.05;97608.31;4944928;28;20503;-50
2022/07/05 05:35:09;;;;;;;1.30;0.80;;;23.70;87.10;;;26.19;40.23;97608.47;4943238;28;20039;-49
2022/07/05 05:37:52;;;;;;;1.02;0.80;;;23.80;85.20;;;25.53;41.04;97599.41;4943725;28;20031;-48
2022/07/05 05:40:19;;;;;;;4.13;0.90;;;23.70;84.90;;;24.75;42.95;97608.41;4939651;28;20059;-48
2022/07/05 05:42:46;;;;;;;1.40;0.95;;;23.30;85.40;;;23.87;44.84;97595.66;4943400;28;20031;-50
2022/07/05 05:45:12;;;;;;;1.08;0.80;;;22.80;86.60;;;23.19;46.58;97604.19;4943705;28;20373;-47
2022/07/05 05:47:56;;;;;;;1.85;1.23;;;22.40;88.60;;;22.47;49.02;97606.53;4939813;28;20034;-48
2022/07/05 05:50:28;;;;;;;2.03;1.10;;;21.90;90.00;;;21.88;49.30;97612.19;4942434;28;20039;-49
2022/07/05 05:52:54;;;;;;;2.60;1.20;;;21.50;90.00;;;21.46;51.78;97607.41;4944792;28;20716;-48
2022/07/05 05:55:23;;;;;;;2.45;1.00;;;21.20;91.20;;;21.16;53.77;97616.81;4940158;28;20031;-49
2022/07/05 05:57:49;;;;;;;2.05;0.90;;;20.90;91.90;;;20.95;55.03;97616.63;4943625;28;20137;-48
2022/07/05 06:00:16;;;;;;;1.42;0.80;;;20.70;92.40;;;20.76;56.18;97609.13;4942905;28;20121;-51
2022/07/05 06:02:44;;;;;;;1.60;1.10;;;20.60;93.30;;;20.62;57.08;97609.31;4941588;28;20027;-51
2022/07/05 06:05:11;;;;;;;3.78;0.90;;;20.50;93.00;;;20.47;54.97;97616.59;4941269;28;20035;-49
2022/07/05 06:07:47;;;;;;;1.40;0.82;;;20.40;92.20;;;20.41;54.60;97617.06;4944279;28;20417;-50
2022/07/05 06:10:21;;;;;;;0.77;0.75;;;20.30;92.00;;;20.33;53.63;97620.31;4944032;28;20042;-50
2022/07/05 06:12:48;;;;;;;0.98;0.77;;;20.30;91.50;;;20.34;55.44;97622.00;4941643;28;20554;-49
2022/07/05 06:15:13;;;;;;;2.00;1.13;;;20.30;92.30;;;20.24;55.67;97622.78;4943406;28;20035;-51
2022/07/05 06:17:39;;;;;;;1.77;1.00;;;20.20;92.20;;;20.20;56.97;97628.38;4944547;28;20066;-47
2022/07/05 06:20:18;;;;;;;1.42;1.05;;;20.20;92.70;;;20.20;55.78;97624.84;4942323;28;20451;-51
2022/07/05 06:22:44;;;;;;;1.58;0.95;;;20.20;92.40;;;20.26;55.74;97636.94;4941857;28;20128;-48
2022/07/05 06:25:10;;;;;;;0.95;0.70;;;20.20;92.40;;;20.31;56.10;97624.91;4945037;28;20074;-49
2022/07/05 06:27:46;;;;;;;1.38;0.90;;;20.20;92.70;;;20.33;52.43;97635.50;4946835;28;20114;-48
2022/07/05 06:30:19;;;;;;;1.10;1.00;;;20.30;91.10;;;20.39;53.08;97635.94;4942503;28;20034;-51
2022/07/05 06:32:45;;;;;;;;;;;20.30;91.10;;;20.44;52.24;97638.28;4943755;28;20027;-49
2022/07/05 06:35:12;;;;;;;4.68;1.08;;;20.40;90.80;;;20.44;51.77;97632.03;4943360;28;19915;-47
2022/07/05 06:37:43;;;;;;;4.75;1.17;;;20.40;90.30;;;20.45;51.62;97636.44;4943725;28;20610;-48
2022/07/05 06:40:12;;;;;;;4.10;1.10;;;20.50;90.20;;;20.53;52.68;97645.63;4942289;28;20368;-51
2022/07/05 06:42:38;;;;;;;1.77;1.00;;;20.50;90.90;;;20.64;53.40;97638.63;4942990;28;20043;-48
2022/07/05 06:45:06;;;;;;;2.28;1.02;;;20.60;91.10;;;20.75;52.97;97647.59;4943830;28;20035;-50
2022/07/05 06:47:33;;;;;;;0.90;0.77;;;20.70;91.00;;;20.83;51.61;97643.50;4943696;29;20552;-48
2022/07/05 06:50:02;;;;;;;2.30;0.80;;;20.80;90.50;;;20.89;51.66;97643.03;4945457;28;20134;-52
2022/07/05 06:52:28;;;;;;;1.30;0.80;;;20.90;90.30;;;20.94;51.36;97647.09;4944508;28;20507;-50
2022/07/05 06:54:54;;;;;;;1.95;0.93;;;20.90;90.20;;;21.06;51.10;97644.44;4945089;28;20061;-50
2022/07/05 06:57:21;;;;;;;1.88;0.80;;;21.00;90.20;;;21.00;48.56;97651.13;4945269;28;20039;-50
2022/07/05 06:59:47;;;;;;;2.15;0.93;;;21.10;86.30;;;21.07;48.78;97651.53;4941067;28;20636;-50
2022/07/05 07:02:13;;;;;;;0.93;0.80;;;21.10;87.00;;;21.15;49.20;97652.63;4943405;28;20024;-50
2022/07/05 07:04:39;;;;;;;1.15;0.85;;;21.10;87.90;;;21.28;49.91;97652.59;4944354;28;20031;-50
2022/07/05 07:09:17;;;;;;;1.80;1.17;;;21.20;89.50;;;21.30;47.80;97658.69;4942635;28;20039;-49
2022/07/05 07:09:50;;;;;;;1.77;0.90;;;21.30;86.10;;;21.36;48.85;97658.19;4941188;28;20075;-48
2022/07/05 07:12:16;;;;;;;2.53;1.42;;;21.40;86.90;;;21.36;47.43;97657.34;4941292;28;20058;-49
2022/07/05 07:14:42;;;;;;;1.40;0.70;;;21.40;85.20;;;21.43;48.15;97660.44;4943032;28;20498;-46
2022/07/05 07:17:07;;;;;;;1.60;0.90;;;21.40;86.10;;;21.45;47.60;97659.34;4945039;28;20081;-46
2022/07/05 07:19:33;;;;;;;2.15;0.98;;;21.40;85.10;;;21.54;48.63;97655.94;4940824;28;20027;-50
2022/07/05 07:21:59;;;;;;;2.42;1.00;;;21.50;86.90;;;21.60;49.45;97646.56;4944096;28;20142;-47
2022/07/05 07:24:24;;;;;;;1.15;1.00;;;21.60;87.10;;;21.78;48.59;97656.84;4940862;28;20042;-49
2022/07/05 07:27:02;;;;;;;1.52;0.93;;;21.70;86.60;;;21.80;46.67;97660.25;4940442;28;21004;-50
2022/07/05 07:29:29;;;;;;;2.97;0.73;;;21.80;84.10;;;21.90;48.23;97655.88;4939064;28;20549;-47
2022/07/05 07:31:56;;;;;;;6.10;1.10;;;21.90;85.80;;;21.91;47.18;97655.75;4945832;28;20049;-47
2022/07/05 07:34:22;;;;;;;3.72;1.20;;;21.90;84.50;;;21.92;47.84;97661.97;4945700;28;20035;-49
2022/07/05 07:36:48;;;;;;;2.97;1.02;;;21.90;85.10;;;21.97;47.08;97661.63;4941072;28;20086;-50
2022/07/05 07:39:14;;;;;;;1.17;0.80;;;21.90;84.60;;;22.01;47.82;97649.66;4938819;28;20026;-47
2022/07/05 07:41:40;;;;;;;2.20;1.08;;;22.00;85.50;;;22.16;48.63;97667.22;4937297;28;20039;-50
2022/07/05 07:44:05;;;;;;;3.55;1.00;;;22.10;85.00;;;22.21;47.67;97675.75;4941769;28;20027;-47
2022/07/05 07:46:31;;;;;;;5.18;1.23;;;22.20;85.20;;;22.11;45.63;97680.19;4939845;29;20047;-50
2022/07/05 07:48:57;;;;;;;2.20;0.80;;;22.30;81.80;;;22.12;46.27;97668.44;4937325;28;20492;-47
2022/07/05 07:51:23;;;;;;;3.75;1.10;;;22.20;82.40;;;22.20;48.10;97679.44;4938906;28;20065;-48
2022/07/05 07:53:49;;;;;;;1.55;1.00;;;22.20;84.60;;;22.29;46.79;97673.34;4940386;28;20547;-47
2022/07/05 07:56:14;;;;;;;2.20;0.70;;;22.30;84.50;;;22.42;46.98;97677.75;4940561;28;20027;-47
2022/07/05 07:58:40;;;;;;;1.65;0.90;;;22.30;84.00;;;22.49;47.47;97676.28;4939277;28;20062;-46
2022/07/05 08:01:10;;;;;;;1.30;0.73;;;22.50;84.20;;;22.55;46.65;97678.44;4931900;28;20677;-49
2022/07/05 08:03:38;;;;;;;1.63;0.93;;;22.60;83.70;;;22.51;45.97;97679.69;4936580;28;20039;-47
2022/07/05 08:06:04;;;;;;;2.13;0.90;;;22.50;81.90;;;22.44;45.00;97673.09;4942960;28;20058;-47
2022/07/05 08:08:29;;;;;;;2.25;1.00;;;22.50;81.60;;;22.47;46.51;97676.41;4939624;28;20399;-49
2022/07/05 08:10:55;;;;;;;2.05;0.90;;;22.40;82.30;;;22.55;46.73;97680.28;4932917;29;20027;-52
2022/07/05 08:13:21;;;;;;;1.55;0.90;;;22.50;83.90;;;22.65;47.08;97674.03;4947745;28;20050;-49
2022/07/05 08:15:46;;;;;;;1.90;0.90;;;22.60;83.80;;;22.74;47.85;97669.75;4948012;28;20560;-48
2022/07/05 08:23:40;;;;;;;1.17;0.82;;;22.90;83.90;;;22.81;47.47;97678.16;4943108;28;20090;-49
2022/07/05 08:26:06;;;;;;;2.97;1.00;;;22.80;83.10;;;22.83;49.00;97676.19;4948789;29;20031;-49
2022/07/05 08:28:32;;;;;;;1.90;1.25;;;22.80;85.00;;;22.86;47.56;97675.94;4946464;28;20919;-47
2022/07/05 08:30:57;;;;;;;1.63;1.00;;;22.80;84.40;;;22.88;48.46;97672.16;4945529;28;20463;-48
2022/07/05 08:33:24;;;;;;;1.30;1.05;;;22.90;85.10;;;23.00;49.69;97677.47;4948114;28;20327;-48
2022/07/05 08:35:50;;;;;;;2.28;1.00;;;23.00;86.70;;;23.10;50.46;97673.06;4964403;23;20066;-39
2022/07/05 08:38:15;;;;;;;4.00;1.20;;;23.00;87.90;;;23.25;48.82;97673.63;4952274;28;20316;-38
2022/07/05 08:40:49;;;;;;;1.02;0.85;;;23.20;86.70;;;23.34;49.80;97669.28;4950883;28;20026;-38
2022/07/05 08:43:16;;;;;;;2.40;1.13;;;23.30;86.90;;;23.35;47.15;97671.00;4956116;28;20085;-38
2022/07/05 08:45:45;;;;;;;2.10;1.05;;;23.40;83.20;;;23.29;44.59;97671.53;4953511;28;20530;-39
2022/07/05 08:48:15;;;;;;;2.65;1.40;;;23.40;79.70;;;23.28;46.31;97669.81;4943166;28;20040;-38
2022/07/05 08:50:42;;;;;;;1.30;1.05;;;23.30;79.90;;;23.28;46.12;97672.53;4937897;28;20340;-39
2022/07/05 08:53:07;;;;;;;1.88;1.10;;;23.30;82.20;;;23.37;46.98;97660.97;4921917;29;20035;-38
2022/07/05 08:55:33;;;;;;;1.20;1.10;;;23.30;82.00;;;23.46;46.42;97662.03;4941235;28;20078;-38
2022/07/05 08:58:00;;;;;;;1.27;1.00;;;23.40;82.60;;;23.58;45.70;97660.94;4941726;28;20058;-40
2022/07/05 09:00:26;;;;;;;2.70;0.90;;;23.50;81.70;;;23.74;45.77;97660.47;4943001;28;20035;-38
2022/07/05 09:02:53;;;;;;;3.38;0.82;;;23.60;81.40;;;23.77;46.50;97663.75;4925102;28;20037;-38
2022/07/05 09:05:20;;;;;;;1.98;0.80;;;23.80;82.30;;;23.82;44.66;97666.94;4928967;28;20039;-38
2022/07/05 09:07:58;;;;;;;3.13;1.10;;;23.80;81.00;;;23.82;44.08;97666.94;4943813;28;20848;-38
2022/07/05 09:10:28;;;;;;;1.55;0.90;;;23.80;80.20;;;23.72;43.49;97662.47;4947084;28;20510;-38
2022/07/05 09:12:56;;;;;;;1.70;1.00;;;23.80;78.30;;;23.68;43.69;97667.25;4949291;28;20038;-39
2022/07/05 09:15:22;;;;;;;2.10;1.05;;;23.70;78.40;;;23.67;43.59;97670.94;4941111;28;20039;-38
2022/07/05 09:17:48;;;;;;;2.13;1.00;;;23.60;77.30;;;23.82;45.81;97668.78;4945779;28;20122;-39
2022/07/05 09:20:16;;;;;;;1.85;1.33;;;23.80;81.10;;;23.90;43.67;97671.66;4943781;28;20398;-39
2022/07/05 09:22:53;;;;;;;3.28;1.38;;;23.90;78.40;;;23.95;43.59;97664.03;4943750;28;20423;-39
2022/07/05 09:25:27;;;;;;;1.90;1.10;;;24.00;77.90;;;23.99;44.19;97659.22;4939592;28;20027;-39
2022/07/05 09:27:57;;;;;;;4.07;1.30;;;24.00;77.90;;;24.07;46.27;97672.03;4941880;28;20404;-39
2022/07/05 09:30:37;;;;;;;3.00;1.25;;;24.00;80.80;;;24.13;45.95;97674.19;4941079;28;20486;-39
2022/07/05 09:33:15;;;;;;;2.25;1.00;;;24.10;82.00;;;24.08;42.94;97660.25;4943331;28;20035;-39
2022/07/05 09:35:43;;;;;;;2.33;1.00;;;24.10;78.40;;;24.19;42.96;97670.94;4940762;28;20039;-38
2022/07/05 09:38:21;;;;;;;1.05;0.85;;;24.10;76.30;;;24.27;42.60;97678.34;4920292;29;20054;-39
2022/07/05 09:40:57;;;;;;;0.90;0.80;;;24.20;75.50;;;24.33;41.62;97672.41;4940979;28;20031;-38
2022/07/05 09:43:28;;;;;;;1.83;1.10;;;24.30;76.20;;;24.26;41.65;97668.56;4939531;28;20031;-38
2022/07/05 09:45:59;;;;;;;1.77;1.08;;;24.30;74.40;;;24.32;41.96;97678.81;4943772;28;20040;-38
2022/07/05 09:48:27;;;;;;;1.35;0.90;;;24.30;75.20;;;24.32;44.32;97681.50;4941159;28;20035;-38
2022/07/05 09:51:09;;;;;;;2.20;0.98;;;24.30;78.30;;;24.34;42.36;97680.38;4943280;28;20040;-38
2022/07/05 09:53:56;;;;;;;2.35;1.00;;;24.30;75.30;;;24.39;43.93;97680.81;4941187;28;20090;-39
2022/07/05 09:56:23;;;;;;;1.50;0.80;;;24.30;76.50;;;24.45;41.65;97681.25;4942373;28;20059;-39
2022/07/05 09:58:49;;;;;;;3.63;1.10;;;24.40;74.90;;;24.51;41.80;97678.84;4943584;28;20089;-39
2022/07/05 10:01:31;;;;;;;2.78;0.93;;;24.50;74.60;;;24.43;39.86;97688.63;4943321;28;20039;-38
2022/07/05 10:04:03;;;;;;;2.08;0.90;;;24.50;70.60;;;24.49;40.11;97682.69;4944415;28;20027;-39
2022/07/05 10:06:32;;;;;;;1.20;0.85;;;24.50;71.70;;;24.52;39.85;97677.88;4940911;28;20525;-39
2022/07/05 10:08:58;;;;;;;6.03;1.00;;;24.50;71.10;;;24.55;39.59;97685.72;4939524;28;20035;-38
2022/07/05 10:11:24;;;;;;;3.83;0.93;;;24.60;70.50;;;24.57;39.69;97669.41;4942861;28;20383;-39
2022/07/05 10:13:52;;;;;;;1.48;0.73;;;24.60;70.40;;;24.66;39.71;97678.53;4943247;28;20053;-38
2022/07/05 10:16:22;;;;;;;1.55;0.90;;;24.70;70.30;;;24.74;40.42;97674.09;4941461;28;20213;-39
2022/07/05 10:18:52;;;;;;;3.33;1.05;;;24.70;72.20;;;24.77;39.26;97678.38;4942721;28;20027;-39
2022/07/05 10:21:19;;;;;;;2.38;1.23;;;24.80;71.30;;;24.70;35.33;97680.78;4942968;28;20031;-39
2022/07/05 10:23:53;;;;;;;2.05;0.80;;;24.80;64.20;;;24.63;36.35;97678.78;4940358;28;20046;-39
2022/07/05 10:26:20;;;;;;;2.10;1.08;;;24.70;64.10;;;24.65;37.82;97672.25;4938081;28;20031;-39